sensor_id;sensor_type;location;lat;lon;timestamp;P1;durP1;ratioP1;P2;durP2;ratioP2
70126;SDS011;57491;42.694;23.314;2023-03-29T00:00:35;5.97;;;4.18;;
70126;SDS011;57491;42.694;23.314;2023-03-29T00:03:02;6.40;;;4.25;;
70126;SDS011;57491;42.694;23.314;2023-03-29T00:05:30;6.53;;;3.80;;
70126;SDS011;57491;42.694;23.314;2023-03-29T00:08:00;6.88;;;3.70;;
70126;SDS011;57491;42.694;23.314;2023-03-29T00:10:29;5.45;;;4.10;;
70126;SDS011;57491;42.694;23.314;2023-03-29T00:12:57;5.25;;;3.58;;
70126;SDS011;57491;42.694;23.314;2023-03-29T00:15:24;7.50;;;4.40;;
70126;SDS011;57491;42.694;23.314;2023-03-29T00:17:51;4.95;;;4.28;;
70126;SDS011;57491;42.694;23.314;2023-03-29T00:20:18;6.45;;;3.83;;
70126;SDS011;57491;42.694;23.314;2023-03-29T00:22:45;5.25;;;4.05;;
70126;SDS011;57491;42.694;23.314;2023-03-29T00:25:14;4.97;;;3.83;;
70126;SDS011;57491;42.694;23.314;2023-03-29T00:27:41;11.48;;;4.28;;
70126;SDS011;57491;42.694;23.314;2023-03-29T00:30:08;6.53;;;3.78;;
70126;SDS011;57491;42.694;23.314;2023-03-29T00:35:03;3.45;;;3.15;;
70126;SDS011;57491;42.694;23.314;2023-03-29T00:37:31;9.20;;;3.92;;
70126;SDS011;57491;42.694;23.314;2023-03-29T00:39:58;7.13;;;4.40;;
70126;SDS011;57491;42.694;23.314;2023-03-29T00:42:27;5.53;;;4.47;;
70126;SDS011;57491;42.694;23.314;2023-03-29T00:44:55;5.97;;;4.38;;
70126;SDS011;57491;42.694;23.314;2023-03-29T00:47:35;9.82;;;3.47;;
70126;SDS011;57491;42.694;23.314;2023-03-29T00:50:07;7.13;;;3.35;;
70126;SDS011;57491;42.694;23.314;2023-03-29T00:52:38;5.63;;;3.70;;
70126;SDS011;57491;42.694;23.314;2023-03-29T00:55:09;4.95;;;3.65;;
70126;SDS011;57491;42.694;23.314;2023-03-29T00:57:42;6.32;;;3.78;;
70126;SDS011;57491;42.694;23.314;2023-03-29T01:00:11;3.65;;;3.35;;
70126;SDS011;57491;42.694;23.314;2023-03-29T01:02:42;6.43;;;4.18;;
70126;SDS011;57491;42.694;23.314;2023-03-29T01:05:15;5.32;;;3.42;;
70126;SDS011;57491;42.694;23.314;2023-03-29T01:07:47;8.40;;;3.88;;
70126;SDS011;57491;42.694;23.314;2023-03-29T01:10:24;4.47;;;3.55;;
70126;SDS011;57491;42.694;23.314;2023-03-29T01:12:59;6.13;;;3.75;;
70126;SDS011;57491;42.694;23.314;2023-03-29T01:15:30;6.22;;;4.28;;
70126;SDS011;57491;42.694;23.314;2023-03-29T01:17:58;6.00;;;3.63;;
70126;SDS011;57491;42.694;23.314;2023-03-29T01:20:29;4.47;;;3.83;;
70126;SDS011;57491;42.694;23.314;2023-03-29T01:23:13;4.97;;;3.50;;
70126;SDS011;57491;42.694;23.314;2023-03-29T01:25:53;3.55;;;3.15;;
70126;SDS011;57491;42.694;23.314;2023-03-29T01:28:30;6.00;;;3.85;;
70126;SDS011;57491;42.694;23.314;2023-03-29T01:31:02;8.05;;;3.75;;
70126;SDS011;57491;42.694;23.314;2023-03-29T01:33:35;5.10;;;3.78;;
70126;SDS011;57491;42.694;23.314;2023-03-29T01:36:08;5.38;;;3.47;;
70126;SDS011;57491;42.694;23.314;2023-03-29T01:38:40;4.78;;;4.13;;
70126;SDS011;57491;42.694;23.314;2023-03-29T01:41:10;4.22;;;3.65;;
70126;SDS011;57491;42.694;23.314;2023-03-29T01:43:40;5.57;;;4.10;;
70126;SDS011;57491;42.694;23.314;2023-03-29T01:46:13;4.55;;;3.40;;
70126;SDS011;57491;42.694;23.314;2023-03-29T01:48:45;5.80;;;3.83;;
70126;SDS011;57491;42.694;23.314;2023-03-29T01:51:17;8.00;;;4.05;;
70126;SDS011;57491;42.694;23.314;2023-03-29T01:53:52;4.90;;;3.83;;
70126;SDS011;57491;42.694;23.314;2023-03-29T01:56:23;4.38;;;3.03;;
70126;SDS011;57491;42.694;23.314;2023-03-29T01:58:56;4.82;;;4.43;;
70126;SDS011;57491;42.694;23.314;2023-03-29T02:01:28;6.22;;;3.63;;
70126;SDS011;57491;42.694;23.314;2023-03-29T02:04:03;5.75;;;4.05;;
70126;SDS011;57491;42.694;23.314;2023-03-29T02:06:34;7.35;;;3.70;;
70126;SDS011;57491;42.694;23.314;2023-03-29T02:09:04;4.03;;;2.50;;
70126;SDS011;57491;42.694;23.314;2023-03-29T02:11:31;5.30;;;3.88;;
70126;SDS011;57491;42.694;23.314;2023-03-29T02:14:02;5.35;;;3.33;;
70126;SDS011;57491;42.694;23.314;2023-03-29T02:16:33;7.43;;;4.13;;
70126;SDS011;57491;42.694;23.314;2023-03-29T02:19:00;4.05;;;3.60;;
70126;SDS011;57491;42.694;23.314;2023-03-29T02:21:29;5.72;;;4.20;;
70126;SDS011;57491;42.694;23.314;2023-03-29T02:24:00;6.25;;;3.10;;
70126;SDS011;57491;42.694;23.314;2023-03-29T02:26:32;5.05;;;3.78;;
70126;SDS011;57491;42.694;23.314;2023-03-29T02:28:59;4.90;;;3.90;;
70126;SDS011;57491;42.694;23.314;2023-03-29T02:31:28;2.97;;;2.67;;
70126;SDS011;57491;42.694;23.314;2023-03-29T02:34:03;3.90;;;3.55;;
70126;SDS011;57491;42.694;23.314;2023-03-29T02:36:35;8.02;;;3.50;;
70126;SDS011;57491;42.694;23.314;2023-03-29T02:39:06;8.07;;;4.63;;
70126;SDS011;57491;42.694;23.314;2023-03-29T02:41:37;4.50;;;3.63;;
70126;SDS011;57491;42.694;23.314;2023-03-29T02:44:06;8.38;;;4.18;;
70126;SDS011;57491;42.694;23.314;2023-03-29T02:46:37;5.00;;;4.05;;
70126;SDS011;57491;42.694;23.314;2023-03-29T02:49:07;4.68;;;3.75;;
70126;SDS011;57491;42.694;23.314;2023-03-29T02:51:34;5.30;;;3.72;;
70126;SDS011;57491;42.694;23.314;2023-03-29T02:54:04;4.95;;;3.90;;
70126;SDS011;57491;42.694;23.314;2023-03-29T02:56:41;4.22;;;3.67;;
70126;SDS011;57491;42.694;23.314;2023-03-29T02:59:09;7.03;;;4.40;;
70126;SDS011;57491;42.694;23.314;2023-03-29T03:01:38;4.80;;;3.65;;
70126;SDS011;57491;42.694;23.314;2023-03-29T03:04:07;10.02;;;4.43;;
70126;SDS011;57491;42.694;23.314;2023-03-29T03:06:34;4.50;;;3.85;;
70126;SDS011;57491;42.694;23.314;2023-03-29T03:09:01;5.13;;;4.13;;
70126;SDS011;57491;42.694;23.314;2023-03-29T03:11:29;5.05;;;4.03;;
70126;SDS011;57491;42.694;23.314;2023-03-29T03:13:56;4.15;;;3.75;;
70126;SDS011;57491;42.694;23.314;2023-03-29T03:16:23;5.50;;;3.93;;
70126;SDS011;57491;42.694;23.314;2023-03-29T03:18:52;8.15;;;4.20;;
70126;SDS011;57491;42.694;23.314;2023-03-29T03:21:20;5.43;;;4.10;;
70126;SDS011;57491;42.694;23.314;2023-03-29T03:23:47;5.15;;;3.55;;
70126;SDS011;57491;42.694;23.314;2023-03-29T03:26:15;5.00;;;3.70;;
70126;SDS011;57491;42.694;23.314;2023-03-29T03:28:43;4.35;;;3.53;;
70126;SDS011;57491;42.694;23.314;2023-03-29T03:33:38;6.15;;;3.15;;
70126;SDS011;57491;42.694;23.314;2023-03-29T03:36:08;5.60;;;3.05;;
70126;SDS011;57491;42.694;23.314;2023-03-29T03:38:36;4.32;;;3.13;;
70126;SDS011;57491;42.694;23.314;2023-03-29T03:41:04;5.25;;;3.65;;
70126;SDS011;57491;42.694;23.314;2023-03-29T03:43:32;6.18;;;3.72;;
70126;SDS011;57491;42.694;23.314;2023-03-29T03:46:00;6.18;;;4.00;;
70126;SDS011;57491;42.694;23.314;2023-03-29T03:48:27;6.60;;;3.80;;
70126;SDS011;57491;42.694;23.314;2023-03-29T03:50:55;5.13;;;3.58;;
70126;SDS011;57491;42.694;23.314;2023-03-29T03:53:25;6.30;;;3.80;;
70126;SDS011;57491;42.694;23.314;2023-03-29T03:55:53;6.38;;;4.15;;
70126;SDS011;57491;42.694;23.314;2023-03-29T03:58:21;6.28;;;4.20;;
70126;SDS011;57491;42.694;23.314;2023-03-29T04:00:48;8.52;;;4.45;;
70126;SDS011;57491;42.694;23.314;2023-03-29T04:03:16;6.28;;;3.70;;
70126;SDS011;57491;42.694;23.314;2023-03-29T04:05:44;6.78;;;3.67;;
70126;SDS011;57491;42.694;23.314;2023-03-29T04:08:12;5.47;;;3.90;;
70126;SDS011;57491;42.694;23.314;2023-03-29T04:13:09;5.63;;;3.72;;
70126;SDS011;57491;42.694;23.314;2023-03-29T04:15:36;6.30;;;3.38;;
70126;SDS011;57491;42.694;23.314;2023-03-29T04:18:03;7.68;;;3.95;;
70126;SDS011;57491;42.694;23.314;2023-03-29T04:20:31;4.80;;;3.10;;
70126;SDS011;57491;42.694;23.314;2023-03-29T04:22:59;3.72;;;3.25;;
70126;SDS011;57491;42.694;23.314;2023-03-29T04:25:26;3.70;;;2.97;;
70126;SDS011;57491;42.694;23.314;2023-03-29T04:27:54;4.35;;;3.30;;
70126;SDS011;57491;42.694;23.314;2023-03-29T04:30:21;3.65;;;2.63;;
70126;SDS011;57491;42.694;23.314;2023-03-29T04:32:49;3.40;;;3.10;;
70126;SDS011;57491;42.694;23.314;2023-03-29T04:35:16;7.05;;;4.50;;
70126;SDS011;57491;42.694;23.314;2023-03-29T04:37:43;6.82;;;3.72;;
70126;SDS011;57491;42.694;23.314;2023-03-29T04:40:10;5.93;;;4.13;;
70126;SDS011;57491;42.694;23.314;2023-03-29T04:42:39;6.63;;;3.70;;
70126;SDS011;57491;42.694;23.314;2023-03-29T04:45:10;7.32;;;3.65;;
70126;SDS011;57491;42.694;23.314;2023-03-29T04:47:38;7.13;;;3.75;;
70126;SDS011;57491;42.694;23.314;2023-03-29T04:50:06;5.68;;;3.55;;
70126;SDS011;57491;42.694;23.314;2023-03-29T04:52:34;5.68;;;3.83;;
70126;SDS011;57491;42.694;23.314;2023-03-29T04:55:01;7.15;;;4.07;;
70126;SDS011;57491;42.694;23.314;2023-03-29T04:57:29;4.13;;;3.72;;
70126;SDS011;57491;42.694;23.314;2023-03-29T04:59:57;8.30;;;4.30;;
70126;SDS011;57491;42.694;23.314;2023-03-29T05:02:26;7.15;;;4.20;;
70126;SDS011;57491;42.694;23.314;2023-03-29T05:04:56;4.70;;;3.13;;
70126;SDS011;57491;42.694;23.314;2023-03-29T05:07:23;4.55;;;3.33;;
70126;SDS011;57491;42.694;23.314;2023-03-29T05:09:50;4.72;;;3.15;;
70126;SDS011;57491;42.694;23.314;2023-03-29T05:12:17;5.93;;;4.18;;
70126;SDS011;57491;42.694;23.314;2023-03-29T05:14:44;4.70;;;3.27;;
70126;SDS011;57491;42.694;23.314;2023-03-29T05:17:11;11.13;;;3.80;;
70126;SDS011;57491;42.694;23.314;2023-03-29T05:19:40;13.73;;;4.07;;
70126;SDS011;57491;42.694;23.314;2023-03-29T05:22:07;5.45;;;3.35;;
70126;SDS011;57491;42.694;23.314;2023-03-29T05:24:34;8.43;;;3.90;;
70126;SDS011;57491;42.694;23.314;2023-03-29T05:27:02;5.97;;;3.83;;
70126;SDS011;57491;42.694;23.314;2023-03-29T05:29:29;5.90;;;3.25;;
70126;SDS011;57491;42.694;23.314;2023-03-29T05:31:58;4.30;;;2.83;;
70126;SDS011;57491;42.694;23.314;2023-03-29T05:34:26;4.45;;;3.20;;
70126;SDS011;57491;42.694;23.314;2023-03-29T05:39:23;5.78;;;3.90;;
70126;SDS011;57491;42.694;23.314;2023-03-29T05:41:50;7.95;;;3.83;;
70126;SDS011;57491;42.694;23.314;2023-03-29T05:44:19;4.75;;;3.45;;
70126;SDS011;57491;42.694;23.314;2023-03-29T05:46:46;5.70;;;3.28;;
70126;SDS011;57491;42.694;23.314;2023-03-29T05:49:13;5.30;;;3.03;;
70126;SDS011;57491;42.694;23.314;2023-03-29T05:51:40;4.03;;;3.00;;
70126;SDS011;57491;42.694;23.314;2023-03-29T05:54:11;6.00;;;3.03;;
70126;SDS011;57491;42.694;23.314;2023-03-29T05:56:39;4.85;;;3.08;;
70126;SDS011;57491;42.694;23.314;2023-03-29T05:59:06;4.18;;;3.42;;
70126;SDS011;57491;42.694;23.314;2023-03-29T06:01:33;6.20;;;3.30;;
70126;SDS011;57491;42.694;23.314;2023-03-29T06:04:01;4.43;;;3.13;;
70126;SDS011;57491;42.694;23.314;2023-03-29T06:06:28;11.90;;;3.10;;
70126;SDS011;57491;42.694;23.314;2023-03-29T06:08:56;9.07;;;2.90;;
70126;SDS011;57491;42.694;23.314;2023-03-29T06:11:24;5.05;;;2.70;;
70126;SDS011;57491;42.694;23.314;2023-03-29T06:13:52;4.88;;;2.35;;
70126;SDS011;57491;42.694;23.314;2023-03-29T06:16:19;3.28;;;2.97;;
70126;SDS011;57491;42.694;23.314;2023-03-29T06:18:46;4.03;;;2.75;;
70126;SDS011;57491;42.694;23.314;2023-03-29T06:21:13;6.57;;;2.53;;
70126;SDS011;57491;42.694;23.314;2023-03-29T06:26:08;4.05;;;2.63;;
70126;SDS011;57491;42.694;23.314;2023-03-29T06:28:38;5.10;;;3.13;;
70126;SDS011;57491;42.694;23.314;2023-03-29T06:31:06;5.78;;;3.13;;
70126;SDS011;57491;42.694;23.314;2023-03-29T06:36:02;6.57;;;2.50;;
70126;SDS011;57491;42.694;23.314;2023-03-29T06:38:30;2.58;;;2.05;;
70126;SDS011;57491;42.694;23.314;2023-03-29T06:40:59;3.50;;;2.55;;
70126;SDS011;57491;42.694;23.314;2023-03-29T06:43:27;3.58;;;2.63;;
70126;SDS011;57491;42.694;23.314;2023-03-29T06:45:55;5.82;;;3.20;;
70126;SDS011;57491;42.694;23.314;2023-03-29T06:48:22;8.82;;;3.58;;
70126;SDS011;57491;42.694;23.314;2023-03-29T06:50:49;6.22;;;3.05;;
70126;SDS011;57491;42.694;23.314;2023-03-29T06:53:17;4.00;;;2.20;;
70126;SDS011;57491;42.694;23.314;2023-03-29T06:55:45;3.08;;;2.20;;
70126;SDS011;57491;42.694;23.314;2023-03-29T06:58:12;4.03;;;2.60;;
70126;SDS011;57491;42.694;23.314;2023-03-29T07:00:39;3.20;;;2.00;;
70126;SDS011;57491;42.694;23.314;2023-03-29T07:03:08;2.85;;;2.00;;
70126;SDS011;57491;42.694;23.314;2023-03-29T07:05:39;4.47;;;2.38;;
70126;SDS011;57491;42.694;23.314;2023-03-29T07:08:06;5.45;;;2.50;;
70126;SDS011;57491;42.694;23.314;2023-03-29T07:10:40;3.13;;;2.83;;
70126;SDS011;57491;42.694;23.314;2023-03-29T07:13:10;4.32;;;2.83;;
70126;SDS011;57491;42.694;23.314;2023-03-29T07:15:38;7.93;;;2.97;;
70126;SDS011;57491;42.694;23.314;2023-03-29T07:18:05;2.83;;;2.13;;
70126;SDS011;57491;42.694;23.314;2023-03-29T07:20:34;3.05;;;1.80;;
70126;SDS011;57491;42.694;23.314;2023-03-29T07:23:03;2.83;;;2.20;;
70126;SDS011;57491;42.694;23.314;2023-03-29T07:25:30;2.42;;;2.22;;
70126;SDS011;57491;42.694;23.314;2023-03-29T07:27:58;3.47;;;2.00;;
70126;SDS011;57491;42.694;23.314;2023-03-29T07:30:26;4.15;;;2.20;;
70126;SDS011;57491;42.694;23.314;2023-03-29T07:32:55;3.88;;;2.20;;
70126;SDS011;57491;42.694;23.314;2023-03-29T07:35:24;2.88;;;1.60;;
70126;SDS011;57491;42.694;23.314;2023-03-29T07:37:52;5.78;;;3.30;;
70126;SDS011;57491;42.694;23.314;2023-03-29T07:42:48;3.63;;;2.00;;
70126;SDS011;57491;42.694;23.314;2023-03-29T07:45:17;5.50;;;2.78;;
70126;SDS011;57491;42.694;23.314;2023-03-29T07:47:46;4.60;;;2.30;;
70126;SDS011;57491;42.694;23.314;2023-03-29T07:50:14;3.67;;;2.65;;
70126;SDS011;57491;42.694;23.314;2023-03-29T07:52:43;5.78;;;2.47;;
70126;SDS011;57491;42.694;23.314;2023-03-29T07:55:11;4.80;;;3.00;;
70126;SDS011;57491;42.694;23.314;2023-03-29T07:57:39;7.07;;;3.75;;
70126;SDS011;57491;42.694;23.314;2023-03-29T08:00:08;5.95;;;2.45;;
70126;SDS011;57491;42.694;23.314;2023-03-29T08:02:39;6.57;;;2.42;;
70126;SDS011;57491;42.694;23.314;2023-03-29T08:05:08;6.63;;;2.00;;
70126;SDS011;57491;42.694;23.314;2023-03-29T08:07:37;3.80;;;2.33;;
70126;SDS011;57491;42.694;23.314;2023-03-29T08:10:08;3.45;;;2.13;;
70126;SDS011;57491;42.694;23.314;2023-03-29T08:12:38;5.93;;;2.72;;
70126;SDS011;57491;42.694;23.314;2023-03-29T08:15:05;2.42;;;1.88;;
70126;SDS011;57491;42.694;23.314;2023-03-29T08:17:33;4.30;;;2.20;;
70126;SDS011;57491;42.694;23.314;2023-03-29T08:20:01;3.92;;;2.17;;
70126;SDS011;57491;42.694;23.314;2023-03-29T08:22:30;4.38;;;1.85;;
70126;SDS011;57491;42.694;23.314;2023-03-29T08:24:57;9.80;;;4.38;;
70126;SDS011;57491;42.694;23.314;2023-03-29T08:27:26;6.05;;;2.90;;
70126;SDS011;57491;42.694;23.314;2023-03-29T08:29:53;4.75;;;2.55;;
70126;SDS011;57491;42.694;23.314;2023-03-29T08:32:20;11.35;;;3.65;;
70126;SDS011;57491;42.694;23.314;2023-03-29T08:34:47;3.22;;;1.80;;
70126;SDS011;57491;42.694;23.314;2023-03-29T08:37:14;3.75;;;1.98;;
70126;SDS011;57491;42.694;23.314;2023-03-29T08:39:41;4.43;;;1.75;;
70126;SDS011;57491;42.694;23.314;2023-03-29T08:42:19;3.15;;;1.67;;
70126;SDS011;57491;42.694;23.314;2023-03-29T08:45:01;3.22;;;1.52;;
70126;SDS011;57491;42.694;23.314;2023-03-29T08:47:36;4.28;;;1.65;;
70126;SDS011;57491;42.694;23.314;2023-03-29T08:50:14;4.53;;;1.50;;
70126;SDS011;57491;42.694;23.314;2023-03-29T08:52:43;3.67;;;1.60;;
70126;SDS011;57491;42.694;23.314;2023-03-29T08:55:17;1.83;;;1.38;;
70126;SDS011;57491;42.694;23.314;2023-03-29T08:57:51;7.95;;;2.20;;
70126;SDS011;57491;42.694;23.314;2023-03-29T09:00:22;7.45;;;2.35;;
70126;SDS011;57491;42.694;23.314;2023-03-29T09:02:57;2.57;;;1.83;;
70126;SDS011;57491;42.694;23.314;2023-03-29T09:05:28;8.40;;;2.78;;
70126;SDS011;57491;42.694;23.314;2023-03-29T09:07:58;6.47;;;2.50;;
70126;SDS011;57491;42.694;23.314;2023-03-29T09:10:28;2.40;;;1.25;;
70126;SDS011;57491;42.694;23.314;2023-03-29T09:13:04;3.63;;;2.08;;
70126;SDS011;57491;42.694;23.314;2023-03-29T09:15:46;7.00;;;2.55;;
70126;SDS011;57491;42.694;23.314;2023-03-29T09:18:22;5.40;;;2.10;;
70126;SDS011;57491;42.694;23.314;2023-03-29T09:20:54;2.95;;;1.30;;
70126;SDS011;57491;42.694;23.314;2023-03-29T09:23:34;4.55;;;2.00;;
70126;SDS011;57491;42.694;23.314;2023-03-29T09:26:11;4.70;;;2.28;;
70126;SDS011;57491;42.694;23.314;2023-03-29T09:28:46;3.15;;;1.90;;
70126;SDS011;57491;42.694;23.314;2023-03-29T09:31:23;4.22;;;2.13;;
70126;SDS011;57491;42.694;23.314;2023-03-29T09:33:56;4.75;;;2.38;;
70126;SDS011;57491;42.694;23.314;2023-03-29T09:36:27;5.90;;;2.22;;
70126;SDS011;57491;42.694;23.314;2023-03-29T09:39:00;5.60;;;3.17;;
70126;SDS011;57491;42.694;23.314;2023-03-29T09:41:30;4.43;;;1.70;;
70126;SDS011;57491;42.694;23.314;2023-03-29T09:44:04;2.42;;;1.80;;
70126;SDS011;57491;42.694;23.314;2023-03-29T09:46:35;6.40;;;2.47;;
70126;SDS011;57491;42.694;23.314;2023-03-29T09:49:05;4.63;;;1.90;;
70126;SDS011;57491;42.694;23.314;2023-03-29T09:51:38;7.50;;;2.72;;
70126;SDS011;57491;42.694;23.314;2023-03-29T09:54:08;3.38;;;1.75;;
70126;SDS011;57491;42.694;23.314;2023-03-29T09:56:36;5.22;;;1.85;;
70126;SDS011;57491;42.694;23.314;2023-03-29T09:59:05;4.95;;;1.85;;
70126;SDS011;57491;42.694;23.314;2023-03-29T10:01:34;4.13;;;1.80;;
70126;SDS011;57491;42.694;23.314;2023-03-29T10:04:04;6.03;;;2.33;;
70126;SDS011;57491;42.694;23.314;2023-03-29T10:06:32;2.97;;;1.48;;
70126;SDS011;57491;42.694;23.314;2023-03-29T10:09:01;9.38;;;2.60;;
70126;SDS011;57491;42.694;23.314;2023-03-29T10:11:31;6.30;;;2.45;;
70126;SDS011;57491;42.694;23.314;2023-03-29T10:14:00;4.22;;;2.25;;
70126;SDS011;57491;42.694;23.314;2023-03-29T10:16:32;4.30;;;1.75;;
70126;SDS011;57491;42.694;23.314;2023-03-29T10:19:06;8.50;;;3.00;;
70126;SDS011;57491;42.694;23.314;2023-03-29T10:21:43;10.05;;;2.60;;
70126;SDS011;57491;42.694;23.314;2023-03-29T10:24:16;11.10;;;2.33;;
70126;SDS011;57491;42.694;23.314;2023-03-29T10:26:44;4.68;;;1.70;;
70126;SDS011;57491;42.694;23.314;2023-03-29T10:31:41;3.45;;;1.30;;
70126;SDS011;57491;42.694;23.314;2023-03-29T10:34:09;7.53;;;2.42;;
70126;SDS011;57491;42.694;23.314;2023-03-29T10:36:39;5.25;;;2.20;;
70126;SDS011;57491;42.694;23.314;2023-03-29T10:41:35;6.53;;;2.00;;
70126;SDS011;57491;42.694;23.314;2023-03-29T10:44:03;4.38;;;1.88;;
70126;SDS011;57491;42.694;23.314;2023-03-29T10:46:31;7.53;;;1.53;;
70126;SDS011;57491;42.694;23.314;2023-03-29T10:49:02;2.67;;;1.65;;
70126;SDS011;57491;42.694;23.314;2023-03-29T10:51:34;4.75;;;1.75;;
70126;SDS011;57491;42.694;23.314;2023-03-29T10:54:02;2.90;;;1.60;;
70126;SDS011;57491;42.694;23.314;2023-03-29T10:56:34;6.95;;;1.88;;
70126;SDS011;57491;42.694;23.314;2023-03-29T10:59:12;4.00;;;1.52;;
70126;SDS011;57491;42.694;23.314;2023-03-29T11:01:49;7.18;;;1.73;;
70126;SDS011;57491;42.694;23.314;2023-03-29T11:04:31;6.13;;;2.47;;
70126;SDS011;57491;42.694;23.314;2023-03-29T11:07:21;3.55;;;1.58;;
70126;SDS011;57491;42.694;23.314;2023-03-29T11:09:56;8.32;;;1.77;;
70126;SDS011;57491;42.694;23.314;2023-03-29T11:12:32;2.88;;;1.60;;
70126;SDS011;57491;42.694;23.314;2023-03-29T11:15:09;1.83;;;1.30;;
70126;SDS011;57491;42.694;23.314;2023-03-29T11:17:48;4.60;;;1.65;;
70126;SDS011;57491;42.694;23.314;2023-03-29T11:20:29;1.95;;;1.40;;
70126;SDS011;57491;42.694;23.314;2023-03-29T11:23:16;2.13;;;1.88;;
70126;SDS011;57491;42.694;23.314;2023-03-29T11:28:28;2.90;;;1.42;;
70126;SDS011;57491;42.694;23.314;2023-03-29T11:31:06;4.50;;;1.73;;
70126;SDS011;57491;42.694;23.314;2023-03-29T11:33:42;3.05;;;2.10;;
70126;SDS011;57491;42.694;23.314;2023-03-29T11:36:20;11.40;;;1.40;;
70126;SDS011;57491;42.694;23.314;2023-03-29T11:38:57;2.80;;;1.70;;
70126;SDS011;57491;42.694;23.314;2023-03-29T11:41:30;6.07;;;2.00;;
70126;SDS011;57491;42.694;23.314;2023-03-29T11:44:00;1.85;;;1.70;;
70126;SDS011;57491;42.694;23.314;2023-03-29T11:46:32;6.22;;;1.92;;
70126;SDS011;57491;42.694;23.314;2023-03-29T11:49:03;2.53;;;1.45;;
70126;SDS011;57491;42.694;23.314;2023-03-29T11:51:39;3.03;;;1.90;;
70126;SDS011;57491;42.694;23.314;2023-03-29T11:54:12;2.50;;;1.63;;
70126;SDS011;57491;42.694;23.314;2023-03-29T11:56:45;6.07;;;1.60;;
70126;SDS011;57491;42.694;23.314;2023-03-29T11:59:15;3.60;;;1.55;;
70126;SDS011;57491;42.694;23.314;2023-03-29T12:01:49;12.40;;;2.40;;
70126;SDS011;57491;42.694;23.314;2023-03-29T12:04:22;7.88;;;2.35;;
70126;SDS011;57491;42.694;23.314;2023-03-29T12:06:58;10.98;;;2.72;;
70126;SDS011;57491;42.694;23.314;2023-03-29T12:09:31;3.35;;;1.58;;
70126;SDS011;57491;42.694;23.314;2023-03-29T12:12:04;4.88;;;2.00;;
70126;SDS011;57491;42.694;23.314;2023-03-29T12:14:41;4.80;;;1.88;;
70126;SDS011;57491;42.694;23.314;2023-03-29T12:17:15;6.10;;;2.05;;
70126;SDS011;57491;42.694;23.314;2023-03-29T12:19:48;4.25;;;1.80;;
70126;SDS011;57491;42.694;23.314;2023-03-29T12:22:20;2.15;;;1.70;;
70126;SDS011;57491;42.694;23.314;2023-03-29T12:24:47;2.92;;;1.48;;
70126;SDS011;57491;42.694;23.314;2023-03-29T12:27:20;3.33;;;1.65;;
70126;SDS011;57491;42.694;23.314;2023-03-29T12:30:09;2.83;;;1.58;;
70126;SDS011;57491;42.694;23.314;2023-03-29T12:32:56;4.07;;;2.25;;
70126;SDS011;57491;42.694;23.314;2023-03-29T12:35:44;2.65;;;1.88;;
70126;SDS011;57491;42.694;23.314;2023-03-29T12:38:25;2.60;;;1.48;;
70126;SDS011;57491;42.694;23.314;2023-03-29T12:40:55;3.88;;;1.80;;
70126;SDS011;57491;42.694;23.314;2023-03-29T12:43:24;3.55;;;1.55;;
70126;SDS011;57491;42.694;23.314;2023-03-29T12:45:56;3.03;;;2.00;;
70126;SDS011;57491;42.694;23.314;2023-03-29T12:48:30;2.63;;;1.95;;
70126;SDS011;57491;42.694;23.314;2023-03-29T12:50:59;7.57;;;1.77;;
70126;SDS011;57491;42.694;23.314;2023-03-29T12:53:31;6.10;;;2.03;;
70126;SDS011;57491;42.694;23.314;2023-03-29T12:56:11;3.72;;;1.80;;
70126;SDS011;57491;42.694;23.314;2023-03-29T12:58:51;5.80;;;2.00;;
70126;SDS011;57491;42.694;23.314;2023-03-29T13:01:26;3.25;;;1.95;;
70126;SDS011;57491;42.694;23.314;2023-03-29T13:03:56;2.92;;;2.10;;
70126;SDS011;57491;42.694;23.314;2023-03-29T13:06:56;3.42;;;1.55;;
70126;SDS011;57491;42.694;23.314;2023-03-29T13:09:33;5.30;;;2.00;;
70126;SDS011;57491;42.694;23.314;2023-03-29T13:12:17;3.90;;;1.60;;
70126;SDS011;57491;42.694;23.314;2023-03-29T13:14:50;2.92;;;1.45;;
70126;SDS011;57491;42.694;23.314;2023-03-29T13:17:30;4.65;;;1.83;;
70126;SDS011;57491;42.694;23.314;2023-03-29T13:20:15;1.50;;;1.40;;
70126;SDS011;57491;42.694;23.314;2023-03-29T13:22:54;1.85;;;1.45;;
70126;SDS011;57491;42.694;23.314;2023-03-29T13:25:39;3.00;;;1.60;;
70126;SDS011;57491;42.694;23.314;2023-03-29T13:28:17;4.38;;;2.13;;
70126;SDS011;57491;42.694;23.314;2023-03-29T13:33:38;3.25;;;1.70;;
70126;SDS011;57491;42.694;23.314;2023-03-29T13:36:14;6.50;;;2.85;;
70126;SDS011;57491;42.694;23.314;2023-03-29T13:38:52;3.45;;;1.85;;
70126;SDS011;57491;42.694;23.314;2023-03-29T13:41:27;4.30;;;2.63;;
70126;SDS011;57491;42.694;23.314;2023-03-29T13:43:58;2.88;;;1.70;;
70126;SDS011;57491;42.694;23.314;2023-03-29T13:46:36;3.67;;;1.70;;
70126;SDS011;57491;42.694;23.314;2023-03-29T13:49:10;3.33;;;1.48;;
70126;SDS011;57491;42.694;23.314;2023-03-29T13:51:57;3.13;;;1.70;;
70126;SDS011;57491;42.694;23.314;2023-03-29T13:54:40;4.13;;;1.75;;
70126;SDS011;57491;42.694;23.314;2023-03-29T13:57:16;3.85;;;1.73;;
70126;SDS011;57491;42.694;23.314;2023-03-29T13:59:50;2.50;;;1.70;;
70126;SDS011;57491;42.694;23.314;2023-03-29T14:02:30;3.35;;;1.70;;
70126;SDS011;57491;42.694;23.314;2023-03-29T14:05:02;4.40;;;2.00;;
70126;SDS011;57491;42.694;23.314;2023-03-29T14:07:32;5.65;;;1.65;;
70126;SDS011;57491;42.694;23.314;2023-03-29T14:10:03;2.65;;;1.88;;
70126;SDS011;57491;42.694;23.314;2023-03-29T14:12:34;1.40;;;1.30;;
70126;SDS011;57491;42.694;23.314;2023-03-29T14:15:04;6.00;;;1.23;;
70126;SDS011;57491;42.694;23.314;2023-03-29T14:17:34;2.90;;;1.45;;
70126;SDS011;57491;42.694;23.314;2023-03-29T14:20:02;4.15;;;1.77;;
70126;SDS011;57491;42.694;23.314;2023-03-29T14:22:33;2.72;;;1.42;;
70126;SDS011;57491;42.694;23.314;2023-03-29T14:25:05;5.70;;;1.75;;
70126;SDS011;57491;42.694;23.314;2023-03-29T14:27:39;1.65;;;1.38;;
70126;SDS011;57491;42.694;23.314;2023-03-29T14:30:17;5.55;;;1.95;;
70126;SDS011;57491;42.694;23.314;2023-03-29T14:32:50;3.00;;;1.50;;
70126;SDS011;57491;42.694;23.314;2023-03-29T14:35:17;10.93;;;2.00;;
70126;SDS011;57491;42.694;23.314;2023-03-29T14:37:45;3.55;;;1.92;;
70126;SDS011;57491;42.694;23.314;2023-03-29T14:40:14;2.65;;;1.60;;
70126;SDS011;57491;42.694;23.314;2023-03-29T14:42:45;4.20;;;1.80;;
70126;SDS011;57491;42.694;23.314;2023-03-29T14:45:15;2.13;;;1.42;;
70126;SDS011;57491;42.694;23.314;2023-03-29T14:47:46;4.80;;;1.73;;
70126;SDS011;57491;42.694;23.314;2023-03-29T14:50:25;4.10;;;2.03;;
70126;SDS011;57491;42.694;23.314;2023-03-29T14:52:55;4.28;;;1.90;;
70126;SDS011;57491;42.694;23.314;2023-03-29T14:55:23;4.15;;;2.00;;
70126;SDS011;57491;42.694;23.314;2023-03-29T14:57:53;4.40;;;2.40;;
70126;SDS011;57491;42.694;23.314;2023-03-29T15:00:22;3.88;;;1.30;;
70126;SDS011;57491;42.694;23.314;2023-03-29T15:02:53;4.88;;;2.15;;
70126;SDS011;57491;42.694;23.314;2023-03-29T15:05:23;4.80;;;2.10;;
70126;SDS011;57491;42.694;23.314;2023-03-29T15:07:57;5.43;;;2.00;;
70126;SDS011;57491;42.694;23.314;2023-03-29T15:12:54;3.67;;;1.90;;
70126;SDS011;57491;42.694;23.314;2023-03-29T15:15:22;3.28;;;1.70;;
70126;SDS011;57491;42.694;23.314;2023-03-29T15:17:51;3.10;;;1.42;;
70126;SDS011;57491;42.694;23.314;2023-03-29T15:20:22;5.40;;;2.08;;
70126;SDS011;57491;42.694;23.314;2023-03-29T15:22:52;2.95;;;1.77;;
70126;SDS011;57491;42.694;23.314;2023-03-29T15:25:21;1.80;;;1.65;;